Terminal Aerodrome Forecast
Issued by NWS

Home | Current Version | Previous Version | Text Only | Print | Product List | Glossary On
Versions: 1 2 3 4 5 6 7 8 9 10 11 12 13
000
FTUS43 KDMX 310520
TAFOTM
TAF
KOTM 310520Z 3106/0106 34015G26KT P6SM SCT025 BKN035
      TEMPO 3106/3108 SCT015 BKN028
     FM310800 35018G28KT P6SM SCT030 BKN080
     FM311400 35015G22KT P6SM SCT080
     FM010200 02010KT P6SM SKC=

USA.gov is the U.S. government's official web portal to all federal, state and local government web resources and services.